createdAt,value
2022-07-27T00:03:01.664Z,13.12551
2022-07-27T00:08:03.293Z,12.18023
2022-07-27T00:13:04.902Z,14.85674
2022-07-27T00:18:06.546Z,13.28849
2022-07-27T00:23:08.155Z,13.08304
2022-07-27T00:28:09.904Z,12.17372
2022-07-27T00:33:11.483Z,12.61172
2022-07-27T00:38:18.901Z,13.45744
2022-07-27T00:43:20.535Z,14.1712
2022-07-27T00:48:22.321Z,13.6098
2022-07-27T00:53:26.135Z,13.83176
2022-07-27T00:58:27.790Z,16.29745
2022-07-27T01:03:30.024Z,15.49137
2022-07-27T01:08:31.705Z,15.63983
2022-07-27T01:13:33.540Z,15.06748
2022-07-27T01:18:35.174Z,15.40671
2022-07-27T01:23:36.802Z,15.64433
2022-07-27T01:28:38.414Z,18.74827
2022-07-27T01:33:40.112Z,17.80915
2022-07-27T01:38:41.730Z,20.8681
2022-07-27T01:43:43.335Z,21.52925
2022-07-27T01:48:44.959Z,22.81981
2022-07-27T01:53:46.684Z,20.609
2022-07-27T01:58:48.273Z,22.99816
2022-07-27T02:03:49.896Z,22.6303
2022-07-27T02:08:51.601Z,22.8824
2022-07-27T02:13:53.206Z,21.61581
2022-07-27T02:18:54.779Z,22.42096
2022-07-27T02:23:56.363Z,22.48324
2022-07-27T02:28:58.180Z,23.37922
2022-07-27T02:33:59.785Z,22.81117
2022-07-27T02:39:01.412Z,23.44779
2022-07-27T02:44:03.005Z,23.47042
2022-07-27T02:49:04.802Z,23.29167
2022-07-27T02:54:06.504Z,25.74047
2022-07-27T02:59:08.349Z,24.12283
2022-07-27T03:04:10.174Z,23.92899
2022-07-27T03:09:12.220Z,24.90394
2022-07-27T03:14:14.003Z,25.06372
2022-07-27T03:19:16.961Z,25.60138
2022-07-27T03:24:18.565Z,25.38086
2022-07-27T03:29:20.132Z,25.60001
2022-07-27T03:34:21.743Z,25.49441
2022-07-27T03:39:23.340Z,26.60346
2022-07-27T03:44:24.933Z,26.53936
2022-07-27T03:49:26.575Z,28.15501
2022-07-27T03:54:28.205Z,29.17182
2022-07-27T03:59:29.819Z,34.12346
2022-07-27T04:04:31.421Z,29.98025
2022-07-27T04:09:33.008Z,29.7965
2022-07-27T04:14:34.783Z,28.96973
2022-07-27T04:19:36.405Z,28.27269
2022-07-27T04:24:38.079Z,28.70213
2022-07-27T04:29:39.725Z,34.26151
2022-07-27T04:34:41.371Z,32.16928
2022-07-27T04:39:43.004Z,31.57108
2022-07-27T04:44:44.616Z,31.09179
2022-07-27T04:49:46.232Z,35.17453
2022-07-27T04:54:47.824Z,33.5747
2022-07-27T04:59:49.432Z,32.03498
2022-07-27T05:04:51.955Z,32.00998
2022-07-27T05:09:53.559Z,37.55269
2022-07-27T05:14:55.180Z,34.32899
2022-07-27T05:19:56.833Z,35.45633
2022-07-27T05:24:58.427Z,34.29815
2022-07-27T05:30:00.086Z,34.29636
2022-07-27T05:35:01.816Z,39.35536
2022-07-27T05:40:03.446Z,38.55494
2022-07-27T05:45:05.048Z,34.11914
2022-07-27T05:50:06.832Z,36.0791
2022-07-27T05:55:08.525Z,35.09336
2022-07-27T06:00:10.131Z,34.5127
2022-07-27T06:05:15.522Z,36.01919
2022-07-27T06:10:17.882Z,34.75654
2022-07-27T06:15:19.662Z,35.23553
2022-07-27T06:20:21.237Z,37.52127
2022-07-27T06:25:22.870Z,38.61153
2022-07-27T06:30:35.601Z,37.23807
2022-07-27T06:35:38.971Z,36.24057
2022-07-27T06:40:40.985Z,36.43645
2022-07-27T06:45:42.765Z,35.65759
2022-07-27T06:50:44.354Z,39.27372
2022-07-27T06:55:45.947Z,35.0071
2022-07-27T07:00:47.774Z,40.03897
2022-07-27T07:05:49.461Z,37.93356
2022-07-27T07:10:51.071Z,37.16586
2022-07-27T07:15:52.715Z,36.76362
2022-07-27T07:20:54.414Z,36.32414
2022-07-27T07:25:56.000Z,37.09749
2022-07-27T07:30:57.664Z,37.6802
2022-07-27T07:36:13.384Z,36.78332
2022-07-27T07:41:16.114Z,36.74629
2022-07-27T07:46:17.747Z,37.75433
2022-07-27T07:51:19.376Z,36.40394
2022-07-27T07:56:20.941Z,40.86063
2022-07-27T08:01:22.608Z,42.00616
2022-07-27T08:06:24.284Z,38.00149
2022-07-27T08:11:25.863Z,40.02894
2022-07-27T08:16:27.553Z,44.28327
2022-07-27T08:21:35.263Z,46.86578
2022-07-27T08:26:37.229Z,48.5887
2022-07-27T08:31:52.181Z,43.32845
2022-07-27T08:36:54.956Z,49.40065
2022-07-27T08:41:56.554Z,46.96066
2022-07-27T08:46:58.278Z,45.923
2022-07-27T08:51:59.930Z,42.7059
2022-07-27T08:57:01.556Z,43.19719
2022-07-27T09:02:03.659Z,51.47311
2022-07-27T09:07:05.505Z,48.03926
2022-07-27T09:12:07.024Z,44.75699
2022-07-27T09:17:47.212Z,48.06231
2022-07-27T09:22:49.949Z,48.67361
2022-07-27T09:27:51.553Z,47.35975
2022-07-27T09:32:53.171Z,47.00212
2022-07-27T09:37:54.781Z,49.61074
2022-07-27T09:43:19.934Z,51.62064
2022-07-27T09:48:54.452Z,45.40925
2022-07-27T09:53:56.125Z,46.55653
2022-07-27T09:58:57.719Z,48.06118
2022-07-27T10:03:59.294Z,51.23247
2022-07-27T10:09:00.907Z,46.59063
2022-07-27T10:14:02.596Z,52.56605
2022-07-27T10:19:08.395Z,52.2225
2022-07-27T10:24:10.664Z,51.57239
2022-07-27T10:29:12.591Z,51.14254
2022-07-27T10:34:14.465Z,48.24617
2022-07-27T10:39:16.336Z,46.21355
2022-07-27T10:44:18.031Z,46.73966
2022-07-27T10:49:19.752Z,49.11879
2022-07-27T10:54:21.459Z,51.74545
2022-07-27T10:59:23.126Z,51.82997
2022-07-27T11:04:24.895Z,51.46072
2022-07-27T11:14:58.329Z,50.06475
2022-07-27T11:19:59.966Z,50.44985
2022-07-27T11:25:01.659Z,49.26459
2022-07-27T11:30:03.240Z,48.99487
2022-07-27T11:35:09.059Z,48.40398
2022-07-27T11:40:42.257Z,46.69213
2022-07-27T11:45:55.869Z,50.25971
2022-07-27T11:50:58.969Z,51.46432
2022-07-27T11:56:00.583Z,52.44374
2022-07-27T12:01:02.437Z,53.93963
2022-07-27T12:06:04.060Z,51.64855
2022-07-27T12:11:05.729Z,54.51456
2022-07-27T12:16:07.333Z,53.45531
2022-07-27T12:21:08.911Z,50.2383
2022-07-27T12:26:10.484Z,52.53396
2022-07-27T12:31:12.215Z,50.38765
2022-07-27T12:36:14.098Z,52.98243
2022-07-27T12:41:15.694Z,53.40308
2022-07-27T12:46:17.388Z,53.8922
2022-07-27T12:51:19.134Z,53.65511
2022-07-27T12:56:27.358Z,54.79072
2022-07-27T13:01:29.613Z,57.62295
2022-07-27T13:06:31.262Z,57.45466
2022-07-27T13:11:32.848Z,51.25918
2022-07-27T13:16:34.518Z,54.0843
2022-07-27T13:21:36.192Z,55.4405
2022-07-27T13:26:37.802Z,60.50181
2022-07-27T13:31:42.363Z,55.08497
2022-07-27T13:36:46.973Z,57.76431
2022-07-27T13:41:48.610Z,57.68539
2022-07-27T13:46:50.266Z,54.75187
2022-07-27T13:51:53.241Z,58.3976
2022-07-27T13:56:54.867Z,57.26928
2022-07-27T14:01:56.622Z,56.80104
2022-07-27T14:06:58.519Z,53.34665
2022-07-27T14:12:00.161Z,57.04543
2022-07-27T14:17:01.766Z,52.92725
2022-07-27T14:22:06.633Z,54.73415
2022-07-27T14:27:08.244Z,56.56923
2022-07-27T14:32:09.928Z,48.79971
2022-07-27T14:37:12.856Z,47.8527
2022-07-27T14:42:14.474Z,44.99828
2022-07-27T14:47:16.164Z,49.40113
2022-07-27T14:52:17.761Z,44.4484
2022-07-27T14:57:19.444Z,47.60289
2022-07-27T15:02:21.126Z,44.59617
2022-07-27T15:07:22.853Z,40.26479
2022-07-27T15:12:24.449Z,40.35238
2022-07-27T15:17:26.129Z,38.88448
2022-07-27T15:22:27.721Z,39.06616
2022-07-27T15:27:29.391Z,36.91956
2022-07-27T15:32:31.028Z,37.1935
2022-07-27T15:37:33.152Z,35.25073
2022-07-27T15:42:37.781Z,35.31527
2022-07-27T15:47:39.832Z,34.74275
2022-07-27T15:52:41.528Z,36.1883
2022-07-27T15:57:43.145Z,34.29391
2022-07-27T16:02:44.766Z,31.8775
2022-07-27T16:07:46.447Z,31.88905
2022-07-27T16:12:48.126Z,30.03247
2022-07-27T16:17:50.217Z,30.59707
2022-07-27T16:22:51.824Z,30.54989
2022-07-27T16:27:53.452Z,31.38486
2022-07-27T16:32:55.064Z,31.3517
2022-07-27T16:37:56.742Z,30.21346
2022-07-27T16:42:58.550Z,27.34936
2022-07-27T16:48:00.136Z,28.0265
2022-07-27T16:53:01.761Z,27.67194
2022-07-27T16:58:04.984Z,26.69213
2022-07-27T17:03:06.659Z,27.26348
2022-07-27T17:08:08.281Z,25.90464
2022-07-27T17:13:13.552Z,26.78916
2022-07-27T17:18:15.472Z,26.67443
2022-07-27T17:23:17.044Z,26.36296
2022-07-27T17:28:18.627Z,25.30428
2022-07-27T17:33:20.393Z,23.71683
2022-07-27T17:38:21.984Z,24.8548
2022-07-27T17:43:23.684Z,25.22322
2022-07-27T17:48:25.385Z,23.69694
2022-07-27T17:53:26.990Z,24.4357
2022-07-27T17:58:30.231Z,23.72545
2022-07-27T18:03:32.136Z,24.37095
2022-07-27T18:08:33.721Z,22.78642
2022-07-27T18:13:37.992Z,22.61439
2022-07-27T18:18:41.588Z,21.96559
2022-07-27T18:23:43.202Z,22.08856
2022-07-27T18:28:45.051Z,22.42229
2022-07-27T18:33:48.854Z,21.88024
2022-07-27T18:38:50.490Z,22.71506
2022-07-27T18:43:52.141Z,22.36302
2022-07-27T18:48:53.826Z,21.47934
2022-07-27T18:53:55.486Z,21.07244
2022-07-27T18:58:57.084Z,22.5973
2022-07-27T19:03:58.818Z,21.74201
2022-07-27T19:09:00.475Z,21.8693
2022-07-27T19:14:02.149Z,21.46439
2022-07-27T19:19:03.823Z,22.22433
2022-07-27T19:24:05.394Z,21.06057
2022-07-27T19:29:08.906Z,21.57963
2022-07-27T19:34:10.693Z,21.60887
2022-07-27T19:39:12.627Z,20.97283
2022-07-27T19:44:17.845Z,20.4179
2022-07-27T19:49:22.203Z,19.88136
2022-07-27T19:54:23.844Z,20.68221
2022-07-27T19:59:25.452Z,19.4513
2022-07-27T20:04:27.058Z,19.23174
2022-07-27T20:09:28.712Z,17.70184
2022-07-27T20:14:30.292Z,18.07456
2022-07-27T20:19:31.926Z,17.32886
2022-07-27T20:24:33.547Z,17.72225
2022-07-27T20:29:35.147Z,17.92653
2022-07-27T20:34:36.741Z,14.72646
2022-07-27T20:39:38.311Z,16.35572
2022-07-27T20:44:39.913Z,14.12037
2022-07-27T20:49:41.498Z,14.09603
2022-07-27T20:54:43.407Z,13.82879
2022-07-27T20:59:45.049Z,14.77106
2022-07-27T21:04:46.864Z,11.92104
2022-07-27T21:09:48.473Z,15.01818
2022-07-27T21:14:50.085Z,12.2236
2022-07-27T21:19:51.655Z,13.65935
2022-07-27T21:24:54.269Z,13.02743
2022-07-27T21:29:55.953Z,13.62035
2022-07-27T21:34:57.561Z,13.27918
2022-07-27T21:39:59.175Z,13.07064
2022-07-27T21:45:00.759Z,13.26858
2022-07-27T21:50:02.350Z,13.84489
2022-07-27T21:55:04.041Z,11.40224
2022-07-27T22:00:05.647Z,11.60505
2022-07-27T22:05:07.247Z,10.14714
2022-07-27T22:10:08.984Z,12.95404
2022-07-27T22:15:10.556Z,11.0523
2022-07-27T22:20:12.180Z,12.45797
2022-07-27T22:25:13.786Z,10.19408
2022-07-27T22:30:15.445Z,12.08564
2022-07-27T22:35:17.084Z,12.14612
2022-07-27T22:40:18.683Z,11.19631
2022-07-27T22:45:20.342Z,10.19476
2022-07-27T22:50:21.971Z,12.14063
2022-07-27T22:55:23.601Z,11.4693
2022-07-27T23:00:25.261Z,10.77883
2022-07-27T23:05:27.213Z,9.63052
2022-07-27T23:10:30.843Z,11.01063
2022-07-27T23:15:32.777Z,10.66195
2022-07-27T23:20:34.352Z,9.73614
2022-07-27T23:25:36.519Z,10.38348
2022-07-27T23:30:38.254Z,10.31553
2022-07-27T23:35:39.875Z,9.49005
2022-07-27T23:40:41.488Z,9.56668
2022-07-27T23:45:43.112Z,10.63924
2022-07-27T23:50:44.715Z,10.45518
2022-07-27T23:55:48.941Z,10.06319
